createdAt,value
2019-05-15T00:03:54.985Z,43.6
2019-05-15T00:14:00.905Z,43.4
2019-05-15T00:19:01.061Z,43.4
2019-05-15T00:24:01.235Z,43.3
2019-05-15T00:29:11.400Z,43.3
2019-05-15T00:34:14.959Z,43.2
2019-05-15T00:39:18.796Z,43.1
2019-05-15T00:44:20.992Z,43.1
2019-05-15T00:49:21.173Z,43
2019-05-15T00:54:21.330Z,42.9
2019-05-15T00:59:26.564Z,42.8
2019-05-15T01:04:28.492Z,42.7
2019-05-15T01:09:29.252Z,42.7
2019-05-15T01:14:31.213Z,42.6
2019-05-15T01:19:33.021Z,42.6
2019-05-15T01:24:34.840Z,42.6
2019-05-15T01:29:43.977Z,42.4
2019-05-15T01:34:48.846Z,42.4
2019-05-15T01:39:50.957Z,42.3
2019-05-15T01:44:51.824Z,42.3
2019-05-15T01:49:53.642Z,42.2
2019-05-15T01:54:55.438Z,42.1
2019-05-15T02:00:00.234Z,42.1
2019-05-15T02:05:02.459Z,42
2019-05-15T02:10:03.797Z,42
2019-05-15T02:15:05.555Z,41.9
2019-05-15T02:20:08.297Z,41.9
2019-05-15T02:25:10.263Z,41.8
2019-05-15T02:30:21.332Z,41.7
2019-05-15T02:35:29.243Z,41.7
2019-05-15T02:40:31.255Z,41.6
2019-05-15T02:45:36.593Z,41.6
2019-05-15T02:50:39.711Z,41.5
2019-05-15T02:55:41.464Z,41.4
2019-05-15T03:00:47.920Z,41.4
2019-05-15T03:05:51.380Z,41.3
2019-05-15T03:10:53.107Z,41.2
2019-05-15T03:15:55.076Z,41.2
2019-05-15T03:20:59.987Z,41.2
2019-05-15T03:26:04.160Z,41.1
2019-05-15T03:31:24.508Z,41.1
2019-05-15T03:36:33.983Z,41
2019-05-15T03:41:35.747Z,40.9
2019-05-15T03:46:39.546Z,40.9
2019-05-15T03:51:45.577Z,40.8
2019-05-15T03:56:49.796Z,40.8
2019-05-15T04:01:51.799Z,40.8
2019-05-15T04:06:53.585Z,40.7
2019-05-15T04:11:55.351Z,40.6
2019-05-15T04:16:59.337Z,40.6
2019-05-15T04:22:01.355Z,40.5
2019-05-15T04:27:06.207Z,40.5
2019-05-15T04:32:10.450Z,40.4
2019-05-15T04:37:12.624Z,40.4
2019-05-15T04:42:14.629Z,40.3
2019-05-15T04:47:18.969Z,40.2
2019-05-15T04:52:20.987Z,40.2
2019-05-15T04:57:23.014Z,40.2
2019-05-15T05:02:26.959Z,40.1
2019-05-15T05:07:29.617Z,40.1
2019-05-15T05:12:31.476Z,40.1
2019-05-15T05:17:33.238Z,40
2019-05-15T05:22:34.968Z,39.9
2019-05-15T05:27:38.254Z,39.9
2019-05-15T05:32:40.305Z,39.8
2019-05-15T05:37:42.045Z,39.7
2019-05-15T05:42:43.772Z,39.7
2019-05-15T05:47:45.474Z,39.7
2019-05-15T05:52:49.037Z,39.6
2019-05-15T05:57:50.920Z,39.6
2019-05-15T06:02:52.680Z,39.6
2019-05-15T06:07:54.428Z,39.5
2019-05-15T06:12:58.534Z,39.5
2019-05-15T06:18:00.479Z,39.4
2019-05-15T06:23:02.202Z,39.4
2019-05-15T06:28:04.172Z,39.3
2019-05-15T06:33:12.607Z,39.3
2019-05-15T06:38:14.550Z,39.2
2019-05-15T06:43:18.811Z,39.2
2019-05-15T06:48:20.856Z,39.1
2019-05-15T06:53:21.564Z,39.1
2019-05-15T06:58:25.126Z,39.1
2019-05-15T07:03:29.153Z,39
2019-05-15T07:08:31.130Z,39
2019-05-15T07:13:32.863Z,38.9
2019-05-15T07:18:34.591Z,38.9
2019-05-15T07:23:38.589Z,38.9
2019-05-15T07:28:40.600Z,38.8
2019-05-15T07:33:43.746Z,38.7
2019-05-15T07:38:45.699Z,38.7
2019-05-15T07:43:49.370Z,38.7
2019-05-15T07:48:51.343Z,38.6
2019-05-15T07:53:53.035Z,38.6
2019-05-15T07:58:54.720Z,38.6
2019-05-15T08:04:02.942Z,38.6
2019-05-15T08:09:17.958Z,38.5
2019-05-15T08:14:19.798Z,38.4
2019-05-15T08:19:21.492Z,38.4
2019-05-15T08:24:23.183Z,38.4
2019-05-15T08:29:24.871Z,38.3
2019-05-15T08:34:28.212Z,38.3
2019-05-15T08:39:29.999Z,38.2
2019-05-15T08:44:31.687Z,38.2
2019-05-15T08:49:33.387Z,38.2
2019-05-15T08:54:35.073Z,38.1
2019-05-15T08:59:38.100Z,38.1
2019-05-15T09:04:39.879Z,38.1
2019-05-15T09:09:41.541Z,38
2019-05-15T09:14:43.225Z,38
2019-05-15T09:19:44.871Z,37.9
2019-05-15T09:24:48.755Z,37.9
2019-05-15T09:29:50.683Z,37.9
2019-05-15T09:34:55.308Z,37.8
2019-05-15T09:39:58.356Z,37.8
2019-05-15T09:45:00.161Z,37.7
2019-05-15T09:50:01.799Z,37.7
2019-05-15T09:55:03.415Z,37.7
2019-05-15T10:00:05.023Z,37.6
2019-05-15T10:05:10.846Z,37.6
2019-05-15T10:10:12.966Z,37.6
2019-05-15T10:15:14.601Z,37.6
2019-05-15T10:20:18.389Z,37.5
2019-05-15T10:25:20.228Z,37.5
2019-05-15T10:30:21.885Z,37.4
2019-05-15T10:35:27.569Z,37.4
2019-05-15T10:40:30.197Z,37.4
2019-05-15T10:45:31.815Z,37.3
2019-05-15T10:50:33.451Z,37.3
2019-05-15T10:55:35.066Z,37.2
2019-05-15T11:00:35.737Z,37.2
2019-05-15T11:05:44.843Z,37.2
2019-05-15T11:10:49.281Z,37.2
2019-05-15T11:15:51.396Z,37.1
2019-05-15T11:20:52.139Z,37.1
2019-05-15T11:25:53.731Z,37.1
2019-05-15T11:30:55.333Z,37.1
2019-05-15T11:36:04.391Z,37
2019-05-15T11:41:08.623Z,36.9
2019-05-15T11:46:10.481Z,36.9
2019-05-15T11:51:12.123Z,36.9
2019-05-15T11:56:14.003Z,36.9
2019-05-15T12:01:18.604Z,36.8
2019-05-15T12:06:22.892Z,36.8
2019-05-15T12:11:33.020Z,36.7
2019-05-15T12:16:39.811Z,36.7
2019-05-15T12:21:41.837Z,36.7
2019-05-15T12:26:43.446Z,36.7
2019-05-15T12:31:45.082Z,36.6
2019-05-15T13:00:29.785Z,36.4
2019-05-15T13:05:32.528Z,36.4
2019-05-15T13:10:34.258Z,36.4
2019-05-15T13:15:35.881Z,36.4
2019-05-15T13:20:38.316Z,36.3
2019-05-15T13:25:40.121Z,36.3
2019-05-15T13:30:41.840Z,36.3
2019-05-15T13:35:45.612Z,36.2
2019-05-15T13:40:48.135Z,36.2
2019-05-15T13:45:49.881Z,36.2
2019-05-15T13:50:51.773Z,36.2
2019-05-15T13:55:53.397Z,36.1
2019-05-15T14:00:55.005Z,36.1
2019-05-15T14:05:58.273Z,36.1
2019-05-15T14:11:00.585Z,36.1
2019-05-15T14:16:02.483Z,36
2019-05-15T14:21:04.566Z,36
2019-05-15T14:26:17.693Z,35.9
2019-05-15T14:31:22.613Z,35.9
2019-05-15T14:36:24.638Z,35.9
2019-05-15T14:41:29.073Z,35.9
2019-05-15T14:46:31.264Z,35.9
2019-05-15T14:51:33.021Z,37.2
2019-05-15T14:56:34.943Z,39.1
2019-05-15T15:01:38.347Z,40.2
2019-05-15T15:06:40.288Z,41.1
2019-05-15T15:11:42.074Z,41.9
2019-05-15T15:16:43.940Z,42.6
2019-05-15T15:21:44.662Z,43.3
2019-05-15T15:26:45.246Z,43.9
2019-05-15T15:31:49.151Z,44.4
2019-05-15T15:36:50.411Z,44.8
2019-05-15T15:41:50.631Z,45.2
2019-05-15T15:46:50.870Z,45.5
2019-05-15T15:51:52.359Z,45.8
2019-05-15T15:56:52.608Z,45.9
2019-05-15T16:01:52.881Z,46.1
2019-05-15T16:06:53.152Z,46.1
2019-05-15T16:11:53.399Z,46.1
2019-05-15T16:16:53.655Z,46.2
2019-05-15T16:21:53.927Z,46.2
2019-05-15T16:26:54.204Z,46.2
2019-05-15T16:31:54.692Z,46.2
2019-05-15T16:36:54.944Z,46.2
2019-05-15T16:41:55.461Z,46.4
2019-05-15T16:46:58.702Z,46.9
2019-05-15T16:51:59.154Z,47.1
2019-05-15T16:56:59.713Z,47.2
2019-05-15T17:02:00.135Z,47.4
2019-05-15T17:07:00.382Z,47.6
2019-05-15T17:12:00.636Z,47.7
2019-05-15T17:17:00.907Z,47.9
2019-05-15T17:22:01.251Z,48.1
2019-05-15T17:27:01.557Z,48.3
2019-05-15T17:32:01.887Z,48.4
2019-05-15T17:37:02.222Z,48.4
2019-05-15T17:42:02.556Z,48.5
2019-05-15T17:47:02.875Z,48.6
2019-05-15T17:52:03.207Z,48.6
2019-05-15T17:57:04.283Z,48.6
2019-05-15T18:02:08.371Z,48.6
2019-05-15T18:07:08.955Z,48.7
2019-05-15T18:12:10.659Z,48.7
2019-05-15T18:17:11.893Z,48.7
2019-05-15T18:22:12.231Z,48.7
2019-05-15T18:27:12.551Z,48.7
2019-05-15T18:32:12.868Z,48.7
2019-05-15T18:37:13.229Z,48.7
2019-05-15T18:42:13.556Z,48.7
2019-05-15T18:47:13.885Z,48.7
2019-05-15T18:52:14.236Z,48.6
2019-05-15T18:57:14.557Z,48.6
2019-05-15T19:02:19.004Z,48.6
2019-05-15T19:07:19.596Z,48.6
2019-05-15T19:12:19.982Z,48.2
2019-05-15T19:17:20.296Z,47.9
2019-05-15T19:22:20.581Z,47.9
2019-05-15T19:27:20.843Z,47.8
2019-05-15T19:32:21.140Z,47.7
2019-05-15T19:37:21.406Z,47.7
2019-05-15T19:42:21.653Z,47.6
2019-05-15T19:47:21.910Z,47.6
2019-05-15T19:52:22.178Z,47.5
2019-05-15T19:57:22.665Z,47.4
2019-05-15T20:02:22.912Z,47.4
2019-05-15T20:07:23.182Z,47.4
2019-05-15T20:12:23.420Z,47.3
2019-05-15T20:17:23.660Z,47.2
2019-05-15T20:22:24.146Z,47.2
2019-05-15T20:27:25.118Z,47.1
2019-05-15T20:32:27.666Z,47.1
2019-05-15T20:37:28.847Z,47
2019-05-15T20:42:29.254Z,46.9
2019-05-15T20:47:30.262Z,46.9
2019-05-15T20:52:30.526Z,46.9
2019-05-15T20:57:30.801Z,46.7
2019-05-15T21:02:31.079Z,46.7
2019-05-15T21:07:38.045Z,46.7
2019-05-15T21:12:40.864Z,46.6
2019-05-15T21:17:43.273Z,46.5
2019-05-15T21:22:44.256Z,46.4
2019-05-15T21:27:44.547Z,46.4
2019-05-15T21:32:44.813Z,46.4
2019-05-15T21:37:45.326Z,46.2
2019-05-15T21:42:45.586Z,46.2
2019-05-15T21:47:45.834Z,46.2
2019-05-15T21:52:46.051Z,46.1
2019-05-15T21:57:46.323Z,46
2019-05-15T22:02:49.307Z,45.9
2019-05-15T22:07:51.137Z,45.9
2019-05-15T22:12:51.974Z,45.8
2019-05-15T22:17:52.240Z,45.8
2019-05-15T22:22:52.476Z,45.7
2019-05-15T22:27:52.699Z,45.6
2019-05-15T22:32:53.079Z,45.6
2019-05-15T22:37:53.322Z,45.5
2019-05-15T22:42:53.548Z,45.4
2019-05-15T22:47:54.005Z,45.4
2019-05-15T22:52:54.240Z,45.3
2019-05-15T22:57:54.450Z,45.2
2019-05-15T23:02:54.671Z,45.2
2019-05-15T23:07:54.866Z,45.1
2019-05-15T23:12:55.066Z,45.1
2019-05-15T23:17:55.320Z,45
2019-05-15T23:22:55.532Z,44.9
2019-05-15T23:27:57.906Z,44.9
2019-05-15T23:32:58.492Z,44.8
2019-05-15T23:37:58.731Z,44.7
2019-05-15T23:42:58.898Z,44.7
2019-05-15T23:47:59.075Z,44.6
2019-05-15T23:52:59.271Z,44.6
2019-05-15T23:57:59.445Z,44.5
